Buoy 33585

sailwx.info

Track history (hours):
 
Tides and Currents Weather Stations Pressure Air Temp Water Temp Dewpoint Dewpoint Depression Visibility Wind Speed Wind Dir Waves Ship Positions

Drifting buoy 33585

Last reported at 2018-Jan-30 19:00 UTC. Time now 2018-Jun-25 19:15 UTC.
Position S 35°43' E 027°44'.
Warning: this ship's position is months out of date.

Barometer 1009.1 mb
Water temperature 22.5 ° C

Date/timePositionNaut miles runAvg speedWind from/ knotsBaromVisibWave heightAir tempDewpointWater temp
2018-Jan-30 19:00S 35°43' E 027°44'0 0.5 1009.1 22.5
2018-Jan-30 18:00S 35°43' E 027°44'0 0.0 1008.0 23.0
2018-Jan-30 14:00S 35°43' E 027°44'38 1.8 1005.8 23.1
2018-Jan-29 17:00S 35°18' E 028°19'1 0.0 1013.8 22.9
2018-Jan-28 16:00S 35°19' E 028°20'0 0.0 1020.3 23.3
2018-Jan-28 15:00S 35°19' E 028°20'1 0.6 1019.8 23.3
2018-Jan-28 13:00S 35°18' E 028°21'3 2.9 1020.2 23.4
2018-Jan-28 12:00S 35°18' E 028°25'6 0.5 1020.1 23.4
2018-Jan-27 22:00S 35°24' E 028°28'1 0.1 1017.2 23.0
2018-Jan-27 16:00S 35°23' E 028°27'12 0.8 1013.7 22.8
2018-Jan-27 01:00S 35°29' E 028°41'7 2.4 1010.2 21.6
2018-Jan-26 22:00S 35°24' E 028°47'11 0.4 1011.5 21.6
2018-Jan-25 15:00S 35°23' E 029°01'1 0.8 1017.4 22.0
2018-Jan-25 14:00S 35°23' E 029°02'0 0.5 1017.4 22.2
2018-Jan-25 13:00S 35°23' E 029°02'0 0.0 1017.3 22.4
2018-Jan-25 12:00S 35°23' E 029°02'0 0.0 1017.4 22.3
2018-Jan-25 11:00S 35°23' E 029°02'11 0.7 1017.4 22.0
2018-Jan-24 19:00S 35°32' E 029°11'2 0.8 1015.3 21.1
2018-Jan-24 16:00S 35°34' E 029°11'0 0.0 1012.7 21.3
2018-Jan-24 15:00S 35°34' E 029°11'3 1.3 1012.3 21.3
2018-Jan-24 13:00S 35°37' E 029°10'9 8.9 1011.6 21.4
2018-Jan-24 12:00S 35°38' E 028°59'0 0.0 1011.2 21.4
2018-Jan-22 19:00S 35°38' E 028°59'3 0.8 1015.0 21.0
2018-Jan-22 15:00S 35°36' E 029°02'8 8.0 1013.9 21.0
2018-Jan-22 14:00S 35°34' E 029°12'0 0.0 1014.7 21.0
2018-Jan-22 06:00S 35°34' E 029°12'1 0.4 1017.6 21.4
2018-Jan-22 04:00S 35°34' E 029°13'0 0.5 1017.5 21.4
2018-Jan-22 03:00S 35°34' E 029°13'0 0.0 1017.8 21.4
2018-Jan-22 02:00S 35°34' E 029°13'1 0.8 1017.7 21.4
2018-Jan-22 01:00S 35°33' E 029°14'2 1.6 1018.0 21.4
2018-Jan-22 00:00S 35°34' E 029°16'0 0.0 1018.4 21.4
2018-Jan-21 23:00S 35°34' E 029°16'4 0.9 1019.0 21.3
2018-Jan-21 19:00S 35°31' E 029°19'1 1.0 1020.3 21.1
2018-Jan-21 18:00S 35°31' E 029°20'2 2.0 1018.4 21.0
2018-Jan-21 17:00S 35°31' E 029°23'0 0.0 1018.0 20.9
2018-Jan-21 16:00S 35°31' E 029°23'1 0.3 1018.2 20.8
2018-Jan-21 13:00S 35°31' E 029°24'0 0.0
2018-Jan-21 12:00S 35°31' E 029°24'2 0.4 1020.3 20.9
2018-Jan-21 07:00S 35°32' E 029°26'1 0.3 1020.4 20.8
2018-Jan-21 05:00S 35°31' E 029°26'1 0.6 1019.6 20.8
2018-Jan-21 04:00S 35°31' E 029°26'1 0.6 1018.9 20.8
2018-Jan-21 03:00S 35°30' E 029°26'0 0.0 1018.8 20.9
2018-Jan-21 02:00S 35°30' E 029°26'1 1.2 1018.1 20.9
2018-Jan-21 01:00S 35°29' E 029°26'3 3.4 1018.2 21.0
2018-Jan-21 00:00S 35°27' E 029°30'0 0.0 1018.4 21.0
2018-Jan-20 20:00S 35°27' E 029°30'0 0.5 1018.1 21.0
2018-Jan-20 19:00S 35°27' E 029°31'   1017.7 21.1
Track history (hours):
 
Tides and Currents Weather Stations Pressure Air Temp Water Temp Dewpoint Dewpoint Depression Visibility Wind Speed Wind Dir Waves Ship Positions

Drifting buoy 33585

Last reported at 2018-Jan-30 19:00 UTC. Time now 2018-Jun-25 19:15 UTC.
Position S 35°43' E 027°44'.
Warning: this ship's position is months out of date.

Barometer 1009.1 mb
Water temperature 22.5 ° C

Date/timePositionNaut miles runAvg speedWind from/ knotsBaromVisibWave heightAir tempDewpointWater temp
2018-Jan-30 19:00S 35°43' E 027°44'0 0.5 1009.1 22.5
2018-Jan-30 18:00S 35°43' E 027°44'0 0.0 1008.0 23.0
2018-Jan-30 14:00S 35°43' E 027°44'38 1.8 1005.8 23.1
2018-Jan-29 17:00S 35°18' E 028°19'1 0.0 1013.8 22.9
2018-Jan-28 16:00S 35°19' E 028°20'0 0.0 1020.3 23.3
2018-Jan-28 15:00S 35°19' E 028°20'1 0.6 1019.8 23.3
2018-Jan-28 13:00S 35°18' E 028°21'3 2.9 1020.2 23.4
2018-Jan-28 12:00S 35°18' E 028°25'6 0.5 1020.1 23.4
2018-Jan-27 22:00S 35°24' E 028°28'1 0.1 1017.2 23.0
2018-Jan-27 16:00S 35°23' E 028°27'12 0.8 1013.7 22.8
2018-Jan-27 01:00S 35°29' E 028°41'7 2.4 1010.2 21.6
2018-Jan-26 22:00S 35°24' E 028°47'11 0.4 1011.5 21.6
2018-Jan-25 15:00S 35°23' E 029°01'1 0.8 1017.4 22.0
2018-Jan-25 14:00S 35°23' E 029°02'0 0.5 1017.4 22.2
2018-Jan-25 13:00S 35°23' E 029°02'0 0.0 1017.3 22.4
2018-Jan-25 12:00S 35°23' E 029°02'0 0.0 1017.4 22.3
2018-Jan-25 11:00S 35°23' E 029°02'11 0.7 1017.4 22.0
2018-Jan-24 19:00S 35°32' E 029°11'2 0.8 1015.3 21.1
2018-Jan-24 16:00S 35°34' E 029°11'0 0.0 1012.7 21.3
2018-Jan-24 15:00S 35°34' E 029°11'3 1.3 1012.3 21.3
2018-Jan-24 13:00S 35°37' E 029°10'9 8.9 1011.6 21.4
2018-Jan-24 12:00S 35°38' E 028°59'0 0.0 1011.2 21.4
2018-Jan-22 19:00S 35°38' E 028°59'3 0.8 1015.0 21.0
2018-Jan-22 15:00S 35°36' E 029°02'8 8.0 1013.9 21.0
2018-Jan-22 14:00S 35°34' E 029°12'0 0.0 1014.7 21.0
2018-Jan-22 06:00S 35°34' E 029°12'1 0.4 1017.6 21.4
2018-Jan-22 04:00S 35°34' E 029°13'0 0.5 1017.5 21.4
2018-Jan-22 03:00S 35°34' E 029°13'0 0.0 1017.8 21.4
2018-Jan-22 02:00S 35°34' E 029°13'1 0.8 1017.7 21.4
2018-Jan-22 01:00S 35°33' E 029°14'2 1.6 1018.0 21.4
2018-Jan-22 00:00S 35°34' E 029°16'0 0.0 1018.4 21.4
2018-Jan-21 23:00S 35°34' E 029°16'4 0.9 1019.0 21.3
2018-Jan-21 19:00S 35°31' E 029°19'1 1.0 1020.3 21.1
2018-Jan-21 18:00S 35°31' E 029°20'2 2.0 1018.4 21.0
2018-Jan-21 17:00S 35°31' E 029°23'0 0.0 1018.0 20.9
2018-Jan-21 16:00S 35°31' E 029°23'1 0.3 1018.2 20.8
2018-Jan-21 13:00S 35°31' E 029°24'0 0.0
2018-Jan-21 12:00S 35°31' E 029°24'2 0.4 1020.3 20.9
2018-Jan-21 07:00S 35°32' E 029°26'1 0.3 1020.4 20.8
2018-Jan-21 05:00S 35°31' E 029°26'1 0.6 1019.6 20.8
2018-Jan-21 04:00S 35°31' E 029°26'1 0.6 1018.9 20.8
2018-Jan-21 03:00S 35°30' E 029°26'0 0.0 1018.8 20.9
2018-Jan-21 02:00S 35°30' E 029°26'1 1.2 1018.1 20.9
2018-Jan-21 01:00S 35°29' E 029°26'3 3.4 1018.2 21.0
2018-Jan-21 00:00S 35°27' E 029°30'0 0.0 1018.4 21.0
2018-Jan-20 20:00S 35°27' E 029°30'0 0.5 1018.1 21.0
2018-Jan-20 19:00S 35°27' E 029°31'   1017.7 21.1

Dump ship's entire track history